createdAt,value
2023-04-01T00:01:27.906Z,74.02
2023-04-01T00:04:39.928Z,75.45
2023-04-01T00:07:48.335Z,75.03
2023-04-01T00:10:58.115Z,75.62
2023-04-01T00:14:06.763Z,75.04
2023-04-01T00:17:15.177Z,75.93
2023-04-01T00:20:25.723Z,76.04
2023-04-01T00:23:34.050Z,75.67
2023-04-01T00:26:43.380Z,76.51
2023-04-01T00:29:51.671Z,75.79
2023-04-01T00:32:59.862Z,75.91
2023-04-01T00:36:11.967Z,75.88
2023-04-01T00:39:21.030Z,75.50
2023-04-01T00:42:29.464Z,76.61
2023-04-01T00:45:42.109Z,76.84
2023-04-01T00:48:55.796Z,75.60
2023-04-01T00:52:08.887Z,75.68
2023-04-01T00:55:20.732Z,76.18
2023-04-01T00:58:35.608Z,76.08
2023-04-01T01:01:44.337Z,75.43
2023-04-01T01:04:53.022Z,75.89
2023-04-01T01:08:17.098Z,74.93
2023-04-01T01:11:37.086Z,75.37
2023-04-01T01:15:09.561Z,74.03
2023-04-01T01:18:27.998Z,73.33
2023-04-01T01:22:07.340Z,73.96
2023-04-01T01:25:37.020Z,73.00
2023-04-01T01:29:00.050Z,72.72
2023-04-01T01:32:30.664Z,72.19
2023-04-01T01:35:45.783Z,72.18
2023-04-01T01:39:00.528Z,71.67
2023-04-01T01:42:17.237Z,72.00
2023-04-01T01:45:28.813Z,72.55
2023-04-01T01:48:39.236Z,72.70
2023-04-01T01:51:49.280Z,72.28
2023-04-01T01:54:59.971Z,73.02
2023-04-01T01:58:21.997Z,73.71
2023-04-01T02:01:34.927Z,73.17
2023-04-01T02:04:52.493Z,73.42
2023-04-01T02:08:11.552Z,73.78
2023-04-01T02:11:26.816Z,73.70
2023-04-01T02:14:44.522Z,72.74
2023-04-01T02:17:53.394Z,72.73
2023-04-01T02:21:02.770Z,73.56
2023-04-01T02:24:16.886Z,71.93
2023-04-01T02:27:26.945Z,71.96
2023-04-01T02:30:39.340Z,72.31
2023-04-01T02:33:49.602Z,72.35
2023-04-01T02:36:59.536Z,71.15
2023-04-01T02:40:13.300Z,71.42
2023-04-01T02:43:22.333Z,71.50
2023-04-01T02:46:30.527Z,70.60
2023-04-01T02:49:38.726Z,70.62
2023-04-01T02:52:46.943Z,69.93
2023-04-01T02:55:57.133Z,70.29
2023-04-01T02:59:09.733Z,69.90
2023-04-01T03:02:19.160Z,70.42
2023-04-01T03:05:27.569Z,70.50
2023-04-01T03:08:35.991Z,70.64
2023-04-01T03:11:45.842Z,70.73
2023-04-01T03:14:54.020Z,71.51
2023-04-01T03:18:02.484Z,71.76
2023-04-01T03:21:19.143Z,71.54
2023-04-01T03:24:27.277Z,71.31
2023-04-01T03:27:37.337Z,71.75
2023-04-01T03:30:45.905Z,71.94
2023-04-01T03:33:54.295Z,71.62
2023-04-01T03:37:02.502Z,71.17
2023-04-01T03:40:12.412Z,71.38
2023-04-01T03:43:22.390Z,70.73
2023-04-01T03:46:31.212Z,71.00
2023-04-01T03:49:39.816Z,71.04
2023-04-01T03:52:48.196Z,72.07
2023-04-01T03:55:56.675Z,72.45
2023-04-01T03:59:09.153Z,72.48
2023-04-01T04:02:17.613Z,72.90
2023-04-01T04:05:26.681Z,72.51
2023-04-01T04:08:34.905Z,73.12
2023-04-01T04:11:43.014Z,72.28
2023-04-01T04:14:52.651Z,72.52
2023-04-01T04:18:01.050Z,73.44
2023-04-01T04:21:14.226Z,73.62
2023-04-01T04:24:23.199Z,73.53
2023-04-01T04:27:43.783Z,73.60
2023-04-01T04:30:56.004Z,72.77
2023-04-01T04:34:04.266Z,72.28
2023-04-01T04:37:16.031Z,71.99
2023-04-01T04:40:24.344Z,72.26
2023-04-01T04:43:32.812Z,72.47
2023-04-01T04:46:43.448Z,72.08
2023-04-01T04:49:56.228Z,72.50
2023-04-01T04:58:22.824Z,72.47
2023-04-01T05:01:32.678Z,72.32
2023-04-01T05:04:42.348Z,72.42
2023-04-01T05:07:52.302Z,72.55
2023-04-01T05:11:01.772Z,71.17
2023-04-01T05:14:15.819Z,70.77
2023-04-01T05:17:27.965Z,70.58
2023-04-01T05:20:37.681Z,70.26
2023-04-01T05:23:46.085Z,69.36
2023-04-01T05:26:55.895Z,69.68
2023-04-01T05:30:07.367Z,69.23
2023-04-01T05:33:39.062Z,68.34
2023-04-01T05:36:48.802Z,67.91
2023-04-01T05:39:59.639Z,68.17
2023-04-01T05:43:08.648Z,67.87
2023-04-01T05:46:17.463Z,66.79
2023-04-01T05:49:36.452Z,67.07
2023-04-01T05:52:47.482Z,66.79
2023-04-01T05:55:56.435Z,66.50
2023-04-01T05:59:06.003Z,66.28
2023-04-01T06:02:14.678Z,65.87
2023-04-01T06:05:26.325Z,66.39
2023-04-01T06:08:36.598Z,64.57
2023-04-01T06:12:19.005Z,63.82
2023-04-01T06:16:16.551Z,63.21
2023-04-01T06:19:44.070Z,63.82
2023-04-01T06:23:37.501Z,64.08
2023-04-01T06:26:58.796Z,63.59
2023-04-01T06:30:37.345Z,63.44
2023-04-01T06:34:03.715Z,63.30
2023-04-01T06:37:45.254Z,62.84
2023-04-01T06:41:20.600Z,62.92
2023-04-01T06:44:51.374Z,63.14
2023-04-01T06:48:42.294Z,62.78
2023-04-01T06:52:29.668Z,60.91
2023-04-01T06:56:03.276Z,59.41
2023-04-01T06:59:24.549Z,57.08
2023-04-01T07:02:43.740Z,58.56
2023-04-01T07:05:52.848Z,57.47
2023-04-01T07:09:08.737Z,58.43
2023-04-01T07:12:48.908Z,57.94
2023-04-01T07:16:22.468Z,58.97
2023-04-01T07:19:42.600Z,58.32
2023-04-01T07:22:56.549Z,58.25
2023-04-01T07:26:18.909Z,58.31
2023-04-01T07:30:03.982Z,57.31
2023-04-01T07:33:21.704Z,58.54
2023-04-01T07:36:41.356Z,58.07
2023-04-01T07:40:02.783Z,57.32
2023-04-01T07:43:52.586Z,57.87
2023-04-01T07:47:47.790Z,57.48
2023-04-01T07:51:05.239Z,56.86
2023-04-01T07:54:24.638Z,57.47
2023-04-01T07:57:45.792Z,56.49
2023-04-01T08:01:03.782Z,55.20
2023-04-01T08:04:43.527Z,54.77
2023-04-01T08:08:04.874Z,54.80
2023-04-01T08:11:59.149Z,53.37
2023-04-01T08:15:43.611Z,54.32
2023-04-01T08:19:17.076Z,53.67
2023-04-01T08:22:31.443Z,53.62
2023-04-01T08:25:50.617Z,53.55
2023-04-01T08:29:10.426Z,51.98
2023-04-01T08:32:28.442Z,52.73
2023-04-01T08:35:47.161Z,53.68
2023-04-01T08:39:01.525Z,53.47
2023-04-01T08:42:50.989Z,53.92
2023-04-01T08:46:46.250Z,53.25
2023-04-01T08:50:36.823Z,52.93
2023-04-01T08:54:35.608Z,54.15
2023-04-01T08:58:07.753Z,50.04
2023-04-01T09:02:19.059Z,49.54
2023-04-01T09:06:41.684Z,49.18
2023-04-01T09:10:34.546Z,50.87
2023-04-01T09:14:30.962Z,50.63
2023-04-01T09:18:38.060Z,50.15
2023-04-01T09:22:31.502Z,49.90
2023-04-01T09:26:07.700Z,48.49
2023-04-01T09:29:40.830Z,47.54
2023-04-01T09:33:21.990Z,49.42
2023-04-01T09:36:48.075Z,48.15
2023-04-01T09:40:24.188Z,47.29
2023-04-01T09:44:02.660Z,45.66
2023-04-01T09:47:34.911Z,46.02
2023-04-01T09:51:00.286Z,46.11
2023-04-01T09:54:33.677Z,46.86
2023-04-01T09:58:30.870Z,46.11
2023-04-01T10:02:52.877Z,45.95
2023-04-01T10:06:58.995Z,46.37
2023-04-01T10:10:57.596Z,45.84
2023-04-01T10:15:02.092Z,46.63
2023-04-01T10:18:58.994Z,44.79
2023-04-01T10:22:42.997Z,46.00
2023-04-01T10:26:47.398Z,45.45
2023-04-01T10:31:28.259Z,45.77
2023-04-01T10:35:21.030Z,46.07
2023-04-01T10:39:21.297Z,45.97
2023-04-01T10:43:29.355Z,44.57
2023-04-01T10:47:23.897Z,45.27
2023-04-01T10:51:17.854Z,47.15
2023-04-01T10:54:48.436Z,46.56
2023-04-01T10:59:04.191Z,47.48
2023-04-01T11:03:37.312Z,48.62
2023-04-01T11:08:04.896Z,49.20
2023-04-01T11:12:12.655Z,48.20
2023-04-01T11:15:47.514Z,49.31
2023-04-01T11:19:53.069Z,50.15
2023-04-01T11:23:45.535Z,52.97
2023-04-01T11:27:20.462Z,52.01
2023-04-01T11:31:00.451Z,51.75
2023-04-01T11:34:37.928Z,51.79
2023-04-01T11:38:01.331Z,52.89
2023-04-01T11:41:43.487Z,52.62
2023-04-01T11:45:30.931Z,53.62
2023-04-01T11:49:19.174Z,51.60
2023-04-01T11:53:27.323Z,53.83
2023-04-01T11:57:08.161Z,55.53
2023-04-01T12:01:01.496Z,58.75
2023-04-01T12:04:49.484Z,63.75
2023-04-01T12:08:12.949Z,65.15
2023-04-01T12:11:33.955Z,64.46
2023-04-01T12:14:56.283Z,64.18
2023-04-01T12:18:19.566Z,64.04
2023-04-01T12:21:38.306Z,64.42
2023-04-01T12:24:51.445Z,62.21
2023-04-01T12:28:18.692Z,63.15
2023-04-01T12:31:40.579Z,64.92
2023-04-01T12:35:26.426Z,64.37
2023-04-01T12:38:53.974Z,65.98
2023-04-01T12:42:19.423Z,66.16
2023-04-01T12:45:52.261Z,66.36
2023-04-01T12:49:30.783Z,67.40
2023-04-01T12:53:04.220Z,68.91
2023-04-01T12:56:28.862Z,68.35
2023-04-01T13:00:14.620Z,70.46
2023-04-01T13:04:06.973Z,68.06
2023-04-01T13:08:05.870Z,68.69
2023-04-01T13:11:34.525Z,69.92
2023-04-01T13:15:22.689Z,70.23
2023-04-01T13:18:46.210Z,70.72
2023-04-01T13:22:04.287Z,70.22
2023-04-01T13:25:28.961Z,70.46
2023-04-01T13:28:46.892Z,69.42
2023-04-01T13:32:18.431Z,70.43
2023-04-01T13:35:45.842Z,69.91
2023-04-01T13:39:17.939Z,70.51
2023-04-01T13:42:31.597Z,70.26
2023-04-01T13:46:09.033Z,69.72
2023-04-01T13:49:50.525Z,70.83
2023-04-01T13:53:41.997Z,71.13
2023-04-01T13:57:03.136Z,70.62
2023-04-01T14:00:32.731Z,71.33
2023-04-01T14:04:19.870Z,71.86
2023-04-01T14:08:05.116Z,72.20
2023-04-01T14:11:24.616Z,71.61
2023-04-01T14:14:53.061Z,71.36
2023-04-01T14:19:02.012Z,71.25
2023-04-01T14:28:09.917Z,70.65
2023-04-01T14:31:36.196Z,71.43
2023-04-01T14:35:13.260Z,71.27
2023-04-01T14:38:50.092Z,71.09
2023-04-01T14:42:33.945Z,70.62
2023-04-01T14:46:09.033Z,69.56
2023-04-01T14:49:27.450Z,70.05
2023-04-01T14:52:42.236Z,70.14
2023-04-01T14:55:54.280Z,69.57
2023-04-01T14:59:02.733Z,70.02
2023-04-01T15:02:47.237Z,69.29
2023-04-01T15:06:15.541Z,70.58
2023-04-01T15:09:40.012Z,70.69
2023-04-01T15:13:05.367Z,71.72
2023-04-01T15:16:27.828Z,71.36
2023-04-01T15:19:57.854Z,69.51
2023-04-01T15:23:28.073Z,69.61
2023-04-01T15:27:11.221Z,70.49
2023-04-01T15:30:31.247Z,69.74
2023-04-01T15:34:00.801Z,69.67
2023-04-01T15:37:23.999Z,69.19
2023-04-01T15:40:44.949Z,69.09
2023-04-01T15:43:54.493Z,69.02
2023-04-01T15:47:15.031Z,67.52
2023-04-01T15:50:51.430Z,67.51
2023-04-01T15:54:59.179Z,66.09
2023-04-01T15:58:43.768Z,65.58
2023-04-01T16:02:21.598Z,65.44
2023-04-01T16:05:54.019Z,65.29
2023-04-01T16:09:23.205Z,64.18
2023-04-01T16:12:51.826Z,64.98
2023-04-01T16:16:12.417Z,65.71
2023-04-01T16:19:53.637Z,66.28
2023-04-01T16:23:13.675Z,67.34
2023-04-01T16:26:32.568Z,67.55
2023-04-01T16:29:50.275Z,68.41
2023-04-01T16:33:06.269Z,68.77
2023-04-01T16:36:30.763Z,68.95
2023-04-01T16:39:49.785Z,68.82
2023-04-01T16:43:13.680Z,69.50
2023-04-01T16:46:43.412Z,68.66
2023-04-01T16:49:57.018Z,68.46
2023-04-01T16:53:19.951Z,67.90
2023-04-01T16:56:41.823Z,69.14
2023-04-01T17:00:01.927Z,67.41
2023-04-01T17:03:19.593Z,65.69
2023-04-01T17:06:47.738Z,66.00
2023-04-01T17:10:23.603Z,65.46
2023-04-01T17:13:59.923Z,65.74
2023-04-01T17:17:43.704Z,65.92
2023-04-01T17:20:58.663Z,64.53
2023-04-01T17:24:29.433Z,64.85
2023-04-01T17:27:52.883Z,64.07
2023-04-01T17:31:11.881Z,64.10
2023-04-01T17:34:39.982Z,64.10
2023-04-01T17:38:07.030Z,63.99
2023-04-01T17:41:31.975Z,64.33
2023-04-01T17:45:01.230Z,65.11
2023-04-01T17:48:27.141Z,65.19
2023-04-01T17:51:45.634Z,65.82
2023-04-01T17:55:20.700Z,65.64
2023-04-01T17:58:41.507Z,66.04
2023-04-01T18:02:03.581Z,64.98
2023-04-01T18:05:37.421Z,63.49
2023-04-01T18:09:00.532Z,64.16
2023-04-01T18:12:24.152Z,64.36
2023-04-01T18:15:40.372Z,63.92
2023-04-01T18:19:05.055Z,63.55
2023-04-01T18:22:24.487Z,63.60
2023-04-01T18:25:41.772Z,63.15
2023-04-01T18:28:57.551Z,64.73
2023-04-01T18:32:30.996Z,65.75
2023-04-01T18:35:53.667Z,65.13
2023-04-01T18:39:12.661Z,65.98
2023-04-01T18:42:35.813Z,66.87
2023-04-01T18:45:56.199Z,66.25
2023-04-01T18:49:17.298Z,66.58
2023-04-01T18:52:36.320Z,67.71
2023-04-01T18:55:53.928Z,68.48
2023-04-01T18:59:12.716Z,68.67
2023-04-01T19:02:33.924Z,67.97
2023-04-01T19:05:46.494Z,68.27
2023-04-01T19:08:56.218Z,68.99
2023-04-01T19:12:43.832Z,69.49
2023-04-01T19:16:02.268Z,68.98
2023-04-01T19:19:27.756Z,68.67
2023-04-01T19:22:58.478Z,69.51
2023-04-01T19:26:14.902Z,69.29
2023-04-01T19:29:43.506Z,68.99
2023-04-01T19:33:07.876Z,69.57
2023-04-01T19:36:27.484Z,68.55
2023-04-01T19:39:57.339Z,68.84
2023-04-01T19:43:24.452Z,68.63
2023-04-01T19:46:39.023Z,68.43
2023-04-01T19:50:03.888Z,68.15
2023-04-01T19:53:29.848Z,69.16
2023-04-01T19:56:49.438Z,69.11
2023-04-01T20:00:15.599Z,68.49
2023-04-01T20:03:43.091Z,68.86
2023-04-01T20:07:03.380Z,68.67
2023-04-01T20:10:18.270Z,68.62
2023-04-01T20:13:44.372Z,68.77
2023-04-01T20:17:21.630Z,68.62
2023-04-01T20:20:32.675Z,68.30
2023-04-01T20:23:52.224Z,68.68
2023-04-01T20:27:10.633Z,68.26
2023-04-01T20:31:07.721Z,68.86
2023-04-01T20:34:51.572Z,69.20
2023-04-01T20:38:27.788Z,69.37
2023-04-01T20:41:47.481Z,68.71
2023-04-01T20:45:16.791Z,68.73
2023-04-01T20:49:00.614Z,68.75
2023-04-01T20:52:34.866Z,68.65
2023-04-01T20:56:18.506Z,68.90
2023-04-01T21:00:27.978Z,69.44
2023-04-01T21:03:50.124Z,69.68
2023-04-01T21:07:23.186Z,69.51
2023-04-01T21:10:44.595Z,68.96
2023-04-01T21:14:14.765Z,68.56
2023-04-01T21:17:44.597Z,69.05
2023-04-01T21:21:18.369Z,70.12
2023-04-01T21:24:56.130Z,68.82
2023-04-01T21:28:29.261Z,68.96
2023-04-01T21:31:58.429Z,69.55
2023-04-01T21:35:23.603Z,68.46
2023-04-01T21:38:53.561Z,68.83
2023-04-01T21:42:24.840Z,68.90
2023-04-01T21:46:11.402Z,68.59
2023-04-01T21:49:48.769Z,69.63
2023-04-01T21:53:45.450Z,68.99
2023-04-01T21:57:48.999Z,69.55
2023-04-01T22:01:19.938Z,68.77
2023-04-01T22:04:49.740Z,68.65
2023-04-01T22:08:10.627Z,68.93
2023-04-01T22:11:35.485Z,68.31
2023-04-01T22:14:57.621Z,68.33
2023-04-01T22:18:23.281Z,68.45
2023-04-01T22:21:45.791Z,67.72
2023-04-01T22:25:08.792Z,67.95
2023-04-01T22:28:26.146Z,68.28
2023-04-01T22:31:45.658Z,67.98
2023-04-01T22:35:04.547Z,69.05
2023-04-01T22:38:30.994Z,68.08
2023-04-01T22:42:01.621Z,68.66
2023-04-01T22:45:41.713Z,68.25
2023-04-01T22:48:58.804Z,67.84
2023-04-01T22:52:25.152Z,67.34
2023-04-01T22:55:52.973Z,67.22
2023-04-01T22:59:14.729Z,67.83
2023-04-01T23:02:28.079Z,67.70
2023-04-01T23:05:48.336Z,67.85
2023-04-01T23:09:15.955Z,68.01
2023-04-01T23:12:27.820Z,68.80
2023-04-01T23:15:38.992Z,67.58
2023-04-01T23:18:57.713Z,67.88
2023-04-01T23:22:21.160Z,68.08
2023-04-01T23:25:49.196Z,68.58
2023-04-01T23:29:00.506Z,68.11
2023-04-01T23:32:19.232Z,67.81
2023-04-01T23:35:27.865Z,68.77
2023-04-01T23:38:42.585Z,68.36
2023-04-01T23:41:55.505Z,68.63
2023-04-01T23:45:14.261Z,68.79
2023-04-01T23:48:30.370Z,68.17
2023-04-01T23:51:43.388Z,68.21
2023-04-01T23:54:58.511Z,68.85
2023-04-01T23:58:23.681Z,68.49
